Time;durP1;ratioP1;P1;durP2;ratioP2;P2;SDS_P1;SDS_P2;PMS_P1;PMS_P2;Temp;Humidity;BMP_temperature;BMP_pressure;BME280_temperature;BME280_humidity;BME280_pressure;Samples;Min_cycle;Max_cycle;Signal;HPM_P1;HPM_P2
2023/06/22 00:01:23;;;;;;;8.10;5.50;;;;;;;;;;5044212;28;20206;-30
2023/06/22 00:03:51;;;;;;;5.50;4.95;;;;;;;;;;5048452;28;20208;-29
2023/06/22 00:06:18;;;;;;;7.13;6.07;;;;;;;;;;5046310;28;20199;-32
2023/06/22 00:08:45;;;;;;;8.07;6.18;;;;;;;;;;5033743;28;20676;-31
2023/06/22 00:11:12;;;;;;;6.30;5.60;;;;;;;;;;5027936;28;20590;-29
2023/06/22 00:13:40;;;;;;;7.05;6.22;;;;;;;;;;5027983;28;20243;-28
2023/06/22 00:16:07;;;;;;;7.28;5.93;;;;;;;;;;5027571;28;20213;-31
2023/06/22 00:18:34;;;;;;;8.05;6.03;;;;;;;;;;5032184;28;20236;-28
2023/06/22 00:21:03;;;;;;;6.95;5.65;;;;;;;;;;5027484;28;20662;-31
2023/06/22 00:23:33;;;;;;;6.22;5.63;;;;;;;;;;5026586;28;20661;-31
2023/06/22 00:26:00;;;;;;;7.68;5.57;;;;;;;;;;5041207;28;20203;-28
2023/06/22 00:28:28;;;;;;;8.40;5.28;;;;;;;;;;5039550;28;20246;-32
2023/06/22 00:30:55;;;;;;;5.93;4.97;;;;;;;;;;5028519;28;20210;-28
2023/06/22 00:33:23;;;;;;;7.47;5.40;;;;;;;;;;5027478;28;20207;-27
2023/06/22 00:35:52;;;;;;;9.32;5.70;;;;;;;;;;5047335;28;20206;-27
2023/06/22 00:38:21;;;;;;;6.13;5.03;;;;;;;;;;5041806;28;20650;-29
2023/06/22 00:40:48;;;;;;;6.22;4.82;;;;;;;;;;5030620;28;20207;-29
2023/06/22 00:43:15;;;;;;;7.90;5.00;;;;;;;;;;5029570;28;20214;-27
2023/06/22 00:45:42;;;;;;;5.72;5.15;;;;;;;;;;5027770;28;20203;-29
2023/06/22 00:48:10;;;;;;;8.32;4.85;;;;;;;;;;5033530;28;20230;-29
2023/06/22 00:50:37;;;;;;;9.10;5.05;;;;;;;;;;5035105;28;20405;-31
2023/06/22 00:53:08;;;;;;;9.40;6.05;;;;;;;;;;5025399;28;20229;-31
2023/06/22 00:55:38;;;;;;;6.47;5.57;;;;;;;;;;5032621;28;20202;-32
2023/06/22 00:58:07;;;;;;;6.97;5.68;;;;;;;;;;5047299;28;20220;-28
2023/06/22 01:00:35;;;;;;;5.43;4.85;;;;;;;;;;5041172;28;20202;-31
2023/06/22 01:03:03;;;;;;;6.57;5.97;;;;;;;;;;5032435;28;20208;-27
2023/06/22 01:05:30;;;;;;;7.17;6.10;;;;;;;;;;5047075;28;20213;-27
2023/06/22 01:08:05;;;;;;;9.60;6.55;;;;;;;;;;5041270;28;20217;-28
2023/06/22 01:10:35;;;;;;;6.35;5.30;;;;;;;;;;5034708;28;20233;-29
2023/06/22 01:13:06;;;;;;;6.70;5.53;;;;;;;;;;5038374;28;20206;-29
2023/06/22 01:15:37;;;;;;;11.00;6.15;;;;;;;;;;5047368;28;20213;-28
2023/06/22 01:18:05;;;;;;;8.18;5.68;;;;;;;;;;5031870;28;20199;-28
2023/06/22 01:20:33;;;;;;;6.18;5.43;;;;;;;;;;5033855;28;20299;-29
2023/06/22 01:23:07;;;;;;;6.88;5.20;;;;;;;;;;5030970;28;20208;-29
2023/06/22 01:25:38;;;;;;;9.48;5.45;;;;;;;;;;5038397;28;20206;-30
2023/06/22 01:28:15;;;;;;;7.05;5.95;;;;;;;;;;5041799;28;20508;-28
2023/06/22 01:30:44;;;;;;;6.63;5.95;;;;;;;;;;5042787;28;20324;-32
2023/06/22 01:33:12;;;;;;;6.45;5.72;;;;;;;;;;5030234;28;20206;-29
2023/06/22 01:35:39;;;;;;;8.40;5.78;;;;;;;;;;5035636;28;20198;-31
2023/06/22 01:38:06;;;;;;;8.38;5.78;;;;;;;;;;5041971;28;20420;-31
2023/06/22 01:40:34;;;;;;;6.32;5.15;;;;;;;;;;5040752;28;20194;-28
2023/06/22 01:43:02;;;;;;;6.45;5.28;;;;;;;;;;5034708;28;20214;-32
2023/06/22 01:45:29;;;;;;;7.57;5.50;;;;;;;;;;5026746;28;20202;-28
2023/06/22 01:47:58;;;;;;;6.97;5.50;;;;;;;;;;5025679;28;20206;-30
2023/06/22 01:50:25;;;;;;;9.73;5.38;;;;;;;;;;5029122;28;20238;-29
2023/06/22 01:52:52;;;;;;;7.38;4.78;;;;;;;;;;5030755;28;20204;-29
2023/06/22 01:55:19;;;;;;;8.15;5.68;;;;;;;;;;5027491;28;20297;-30
2023/06/22 01:57:46;;;;;;;8.35;5.35;;;;;;;;;;5035428;28;20199;-31
2023/06/22 02:00:15;;;;;;;9.52;5.90;;;;;;;;;;5046076;28;20225;-30
2023/06/22 02:02:45;;;;;;;7.93;5.05;;;;;;;;;;5037979;28;20223;-31
2023/06/22 02:05:17;;;;;;;7.67;5.47;;;;;;;;;;5037399;28;20237;-33
2023/06/22 02:07:46;;;;;;;6.30;5.70;;;;;;;;;;5025185;28;20508;-31
2023/06/22 02:10:15;;;;;;;7.00;5.45;;;;;;;;;;5034325;28;20225;-29
2023/06/22 02:15:12;;;;;;;9.07;5.13;;;;;;;;;;5045269;28;20223;-41
2023/06/22 02:17:39;;;;;;;11.23;5.70;;;;;;;;;;5030316;28;20236;-40
2023/06/22 02:20:08;;;;;;;8.55;5.30;;;;;;;;;;5011120;28;20290;-33
2023/06/22 02:22:37;;;;;;;5.65;5.03;;;;;;;;;;5006704;28;20247;-32
2023/06/22 02:25:04;;;;;;;7.20;5.47;;;;;;;;;;5014836;28;20213;-32
2023/06/22 02:27:31;;;;;;;8.00;5.28;;;;;;;;;;5017421;28;20222;-37
2023/06/22 02:29:58;;;;;;;9.30;4.93;;;;;;;;;;5026870;28;20229;-37
2023/06/22 02:32:25;;;;;;;6.95;5.07;;;;;;;;;;5026262;28;20661;-34
2023/06/22 02:34:54;;;;;;;6.45;5.00;;;;;;;;;;5008497;28;20214;-32
2023/06/22 02:37:24;;;;;;;9.43;5.15;;;;;;;;;;5019063;28;20195;-33
2023/06/22 02:39:53;;;;;;;8.95;5.20;;;;;;;;;;5004447;28;20563;-30
2023/06/22 02:42:21;;;;;;;8.97;4.90;;;;;;;;;;5011173;28;20205;-36
2023/06/22 02:44:48;;;;;;;5.35;4.43;;;;;;;;;;5025510;28;20241;-38
2023/06/22 02:47:15;;;;;;;5.83;4.93;;;;;;;;;;5025317;28;20210;-34
2023/06/22 02:49:44;;;;;;;6.37;4.83;;;;;;;;;;5007961;28;20219;-37
2023/06/22 02:52:12;;;;;;;11.63;5.55;;;;;;;;;;5010204;28;20209;-29
2023/06/22 02:54:39;;;;;;;12.60;5.32;;;;;;;;;;5013911;28;20198;-36
2023/06/22 02:57:13;;;;;;;8.43;5.22;;;;;;;;;;5009998;28;20437;-38
2023/06/22 02:59:40;;;;;;;6.00;4.93;;;;;;;;;;5005443;28;20222;-34
2023/06/22 03:02:08;;;;;;;6.30;5.07;;;;;;;;;;5010233;28;20534;-39
2023/06/22 03:04:35;;;;;;;9.23;5.67;;;;;;;;;;5017088;28;20248;-37
2023/06/22 03:07:02;;;;;;;6.43;5.30;;;;;;;;;;5017135;28;20202;-32
2023/06/22 03:09:30;;;;;;;9.93;5.97;;;;;;;;;;5020431;28;20257;-36
2023/06/22 03:11:57;;;;;;;7.72;5.30;;;;;;;;;;5022960;28;20296;-36
2023/06/22 03:14:26;;;;;;;7.47;4.90;;;;;;;;;;5024968;28;20210;-36
2023/06/22 03:16:53;;;;;;;5.77;4.20;;;;;;;;;;5022397;28;20257;-38
2023/06/22 03:19:21;;;;;;;8.07;4.83;;;;;;;;;;5010453;28;20229;-35
2023/06/22 03:21:48;;;;;;;8.95;4.88;;;;;;;;;;5021280;28;20213;-37
2023/06/22 03:24:15;;;;;;;6.87;5.60;;;;;;;;;;5006439;28;20201;-35
2023/06/22 03:26:42;;;;;;;6.43;5.53;;;;;;;;;;5015229;28;20207;-34
2023/06/22 03:29:09;;;;;;;6.33;5.13;;;;;;;;;;5004868;28;20222;-38
2023/06/22 03:31:38;;;;;;;6.53;4.90;;;;;;;;;;5006299;28;20211;-32
2023/06/22 03:34:05;;;;;;;10.17;6.83;;;;;;;;;;5017323;28;20199;-31
2023/06/22 03:36:32;;;;;;;8.40;5.33;;;;;;;;;;5016640;28;20207;-30
2023/06/22 03:38:59;;;;;;;9.77;5.10;;;;;;;;;;5011566;28;20227;-32
2023/06/22 03:41:26;;;;;;;6.47;5.40;;;;;;;;;;5019250;28;20209;-33
2023/06/22 03:43:53;;;;;;;7.10;4.90;;;;;;;;;;5031779;28;20206;-33
2023/06/22 03:46:21;;;;;;;7.03;5.07;;;;;;;;;;5023726;28;20211;-33
2023/06/22 03:48:49;;;;;;;5.87;4.53;;;;;;;;;;5020331;28;20266;-39
2023/06/22 03:51:16;;;;;;;7.00;4.70;;;;;;;;;;5010967;28;20249;-37
2023/06/22 03:53:44;;;;;;;6.70;4.90;;;;;;;;;;5011255;28;20344;-37
2023/06/22 03:56:11;;;;;;;8.43;4.90;;;;;;;;;;5026610;28;20203;-38
2023/06/22 03:58:42;;;;;;;6.23;5.57;;;;;;;;;;5019362;28;20246;-38
2023/06/22 04:01:11;;;;;;;6.43;5.47;;;;;;;;;;5016109;28;20204;-37
2023/06/22 04:03:40;;;;;;;8.03;5.50;;;;;;;;;;5020830;28;20198;-33
2023/06/22 04:06:08;;;;;;;5.37;4.57;;;;;;;;;;5023479;28;20202;-31
2023/06/22 04:08:37;;;;;;;6.83;5.23;;;;;;;;;;5025313;28;20229;-38
2023/06/22 04:11:06;;;;;;;8.27;5.70;;;;;;;;;;5023809;28;20241;-31
2023/06/22 04:13:33;;;;;;;8.30;5.30;;;;;;;;;;5015403;28;20207;-35
2023/06/22 04:16:01;;;;;;;9.02;5.40;;;;;;;;;;5011568;28;20207;-39
2023/06/22 04:18:28;;;;;;;6.83;5.20;;;;;;;;;;5016572;28;20396;-33
2023/06/22 04:20:55;;;;;;;5.50;5.00;;;;;;;;;;5019629;28;20202;-31
2023/06/22 04:23:23;;;;;;;9.60;5.07;;;;;;;;;;5014118;28;20227;-34
2023/06/22 04:25:51;;;;;;;7.10;5.20;;;;;;;;;;5018498;28;20210;-35
2023/06/22 04:28:18;;;;;;;7.93;5.67;;;;;;;;;;5024503;28;20203;-35
2023/06/22 04:30:47;;;;;;;6.37;5.27;;;;;;;;;;5010900;28;20231;-37
2023/06/22 04:33:14;;;;;;;8.10;5.87;;;;;;;;;;5010583;28;20841;-37
2023/06/22 04:35:42;;;;;;;6.57;5.43;;;;;;;;;;5027325;28;20597;-34
2023/06/22 04:38:09;;;;;;;7.50;5.60;;;;;;;;;;5011756;28;20257;-29
2023/06/22 04:40:37;;;;;;;9.63;5.70;;;;;;;;;;5017092;28;20562;-33
2023/06/22 04:43:06;;;;;;;8.38;5.35;;;;;;;;;;5023190;28;20214;-33
2023/06/22 04:45:33;;;;;;;8.38;5.72;;;;;;;;;;5030947;28;20213;-32
2023/06/22 04:48:00;;;;;;;8.17;5.57;;;;;;;;;;5026009;28;20198;-36
2023/06/22 04:50:27;;;;;;;10.10;6.22;;;;;;;;;;5025115;28;20230;-34
2023/06/22 04:52:54;;;;;;;8.50;5.90;;;;;;;;;;5007477;28;20206;-37
2023/06/22 04:55:21;;;;;;;9.37;5.83;;;;;;;;;;5020136;28;20352;-34
2023/06/22 04:57:50;;;;;;;5.93;5.07;;;;;;;;;;5020730;28;20203;-36
2023/06/22 05:00:18;;;;;;;8.65;6.50;;;;;;;;;;5031281;28;20226;-30
2023/06/22 05:02:46;;;;;;;7.10;5.60;;;;;;;;;;5023965;28;20202;-35
2023/06/22 05:05:14;;;;;;;9.15;5.80;;;;;;;;;;5025114;28;20210;-35
2023/06/22 05:07:43;;;;;;;5.33;4.37;;;;;;;;;;5013539;28;20254;-35
2023/06/22 05:10:11;;;;;;;8.93;5.83;;;;;;;;;;5018254;28;20222;-33
2023/06/22 05:12:38;;;;;;;6.00;4.88;;;;;;;;;;5026812;28;20214;-31
2023/06/22 05:15:07;;;;;;;8.15;5.70;;;;;;;;;;5030834;28;20225;-38
2023/06/22 05:17:34;;;;;;;8.38;5.75;;;;;;;;;;5021012;28;20215;-34
2023/06/22 05:20:01;;;;;;;6.13;5.38;;;;;;;;;;5029523;28;20218;-32
2023/06/22 05:22:28;;;;;;;6.97;5.20;;;;;;;;;;5030373;28;20210;-33
2023/06/22 05:24:55;;;;;;;7.53;5.93;;;;;;;;;;5017821;28;20213;-31
2023/06/22 05:27:23;;;;;;;6.90;5.43;;;;;;;;;;5016221;28;20200;-35
2023/06/22 05:29:50;;;;;;;6.70;5.32;;;;;;;;;;5012124;28;20230;-33
2023/06/22 05:32:19;;;;;;;8.90;5.65;;;;;;;;;;5011224;28;20214;-37
2023/06/22 05:34:46;;;;;;;9.32;5.97;;;;;;;;;;5020410;28;20203;-30
2023/06/22 05:37:14;;;;;;;8.40;5.53;;;;;;;;;;5016153;28;20287;-37
2023/06/22 05:39:41;;;;;;;8.25;5.20;;;;;;;;;;5014154;28;20223;-42
2023/06/22 05:42:09;;;;;;;6.45;5.07;;;;;;;;;;5016003;28;20208;-36
2023/06/22 05:44:37;;;;;;;7.63;5.40;;;;;;;;;;5010362;28;20218;-36
2023/06/22 05:47:04;;;;;;;7.25;4.68;;;;;;;;;;5012114;28;20211;-40
2023/06/22 05:49:33;;;;;;;5.35;4.15;;;;;;;;;;5020000;28;20243;-32
2023/06/22 05:52:00;;;;;;;7.28;4.95;;;;;;;;;;5029722;28;20226;-36
2023/06/22 05:54:28;;;;;;;5.75;4.80;;;;;;;;;;5023577;28;20216;-37
2023/06/22 05:56:56;;;;;;;6.45;4.35;;;;;;;;;;5018555;28;20810;-32
2023/06/22 05:59:23;;;;;;;6.90;4.38;;;;;;;;;;5029508;28;20229;-36
2023/06/22 06:01:50;;;;;;;9.00;4.70;;;;;;;;;;5026447;28;20218;-33
2023/06/22 06:04:18;;;;;;;6.88;4.20;;;;;;;;;;5014228;28;20206;-35
2023/06/22 06:06:47;;;;;;;5.70;4.13;;;;;;;;;;5027593;28;20201;-32
2023/06/22 06:09:16;;;;;;;6.07;4.10;;;;;;;;;;5022465;28;20320;-38
2023/06/22 06:11:43;;;;;;;7.60;4.57;;;;;;;;;;5021902;28;20229;-36
2023/06/22 06:14:10;;;;;;;8.07;4.22;;;;;;;;;;5030405;28;20212;-30
2023/06/22 06:16:37;;;;;;;4.60;4.10;;;;;;;;;;5030838;28;20209;-35
2023/06/22 06:19:18;;;;;;;5.32;3.50;;;;;;;;;;5011274;28;20226;-39
2023/06/22 06:21:46;;;;;;;5.45;4.00;;;;;;;;;;5011600;28;20811;-39
2023/06/22 06:24:14;;;;;;;3.83;3.53;;;;;;;;;;5015554;28;20216;-30
2023/06/22 06:26:41;;;;;;;6.57;3.65;;;;;;;;;;5021986;28;20200;-36
2023/06/22 06:29:08;;;;;;;7.28;3.85;;;;;;;;;;5030035;28;20224;-30
2023/06/22 06:31:36;;;;;;;3.83;3.50;;;;;;;;;;5020257;28;20222;-39
2023/06/22 06:34:03;;;;;;;7.18;3.83;;;;;;;;;;5014230;28;20198;-36
2023/06/22 06:36:30;;;;;;;6.90;4.15;;;;;;;;;;5029594;28;20384;-34
2023/06/22 06:38:59;;;;;;;5.57;3.70;;;;;;;;;;5020177;28;20235;-33
2023/06/22 06:41:26;;;;;;;5.60;3.60;;;;;;;;;;5018958;28;20233;-36
2023/06/22 06:43:53;;;;;;;6.05;3.55;;;;;;;;;;5021241;28;20205;-34
2023/06/22 06:46:20;;;;;;;5.22;3.85;;;;;;;;;;5030085;28;20206;-35
2023/06/22 06:48:47;;;;;;;7.80;3.70;;;;;;;;;;5020106;28;20232;-34
2023/06/22 06:51:14;;;;;;;5.90;3.40;;;;;;;;;;5009806;28;20222;-35
2023/06/22 06:53:41;;;;;;;4.22;3.40;;;;;;;;;;5005894;28;20317;-34
2023/06/22 06:56:10;;;;;;;5.72;3.47;;;;;;;;;;5023301;28;20203;-37
2023/06/22 06:58:37;;;;;;;9.32;4.10;;;;;;;;;;5012816;28;20219;-39
2023/06/22 07:01:04;;;;;;;7.20;3.90;;;;;;;;;;5011022;28;20562;-30
2023/06/22 07:03:33;;;;;;;10.05;3.00;;;;;;;;;;5019662;28;20205;-33
2023/06/22 07:06:00;;;;;;;5.65;3.10;;;;;;;;;;5013146;28;20297;-32
2023/06/22 07:08:27;;;;;;;5.50;3.10;;;;;;;;;;5025705;28;20231;-35
2023/06/22 07:10:54;;;;;;;4.03;3.00;;;;;;;;;;5011154;28;20851;-32
2023/06/22 07:13:23;;;;;;;9.25;3.30;;;;;;;;;;5013022;28;20195;-36
2023/06/22 07:15:50;;;;;;;4.50;3.00;;;;;;;;;;5013007;28;20269;-37
2023/06/22 07:18:17;;;;;;;6.15;3.25;;;;;;;;;;5017324;28;20293;-30
2023/06/22 07:20:44;;;;;;;5.10;3.50;;;;;;;;;;5016042;28;20312;-35
2023/06/22 07:23:11;;;;;;;6.32;3.40;;;;;;;;;;5022026;28;20210;-34
2023/06/22 07:25:39;;;;;;;4.10;3.30;;;;;;;;;;5021759;28;20237;-31
2023/06/22 07:28:06;;;;;;;4.35;3.38;;;;;;;;;;5024122;28;20233;-34
2023/06/22 07:30:35;;;;;;;8.63;3.53;;;;;;;;;;5032797;28;20233;-33
2023/06/22 07:33:06;;;;;;;5.22;3.33;;;;;;;;;;5027884;28;20206;-33
2023/06/22 07:35:34;;;;;;;4.88;2.90;;;;;;;;;;5021042;28;20210;-41
2023/06/22 07:38:01;;;;;;;8.50;3.40;;;;;;;;;;5029686;28;20210;-38
2023/06/22 07:40:28;;;;;;;8.63;3.63;;;;;;;;;;5019162;28;20207;-32
2023/06/22 07:42:55;;;;;;;8.57;3.72;;;;;;;;;;5023106;28;20202;-37
2023/06/22 07:45:23;;;;;;;4.40;3.55;;;;;;;;;;5030491;28;20206;-35
2023/06/22 07:47:51;;;;;;;7.30;3.63;;;;;;;;;;5018126;28;20215;-37
2023/06/22 07:50:18;;;;;;;8.38;3.55;;;;;;;;;;5029946;28;20309;-35
2023/06/22 07:52:47;;;;;;;7.60;3.65;;;;;;;;;;5013750;28;20456;-41
2023/06/22 07:55:14;;;;;;;5.68;2.83;;;;;;;;;;5016399;28;20202;-34
2023/06/22 07:57:42;;;;;;;9.75;3.50;;;;;;;;;;5022663;28;20195;-40
2023/06/22 08:00:13;;;;;;;5.18;2.90;;;;;;;;;;5012097;28;20230;-35
2023/06/22 15:18:11;;;;;;;10.80;5.03;;;;;;;;;;5134090;27;20591;-33
2023/06/22 15:20:38;;;;;;;9.40;4.32;;;;;;;;;;5102226;28;20200;-33
2023/06/22 15:23:05;;;;;;;8.02;4.13;;;;;;;;;;5099809;28;20817;-33
2023/06/22 15:25:32;;;;;;;10.50;4.13;;;;;;;;;;5069042;28;20213;-33
2023/06/22 15:27:59;;;;;;;10.13;4.82;;;;;;;;;;5083559;28;20224;-31
2023/06/22 15:30:26;;;;;;;8.77;4.32;;;;;;;;;;5105391;28;20192;-29
2023/06/22 15:32:53;;;;;;;8.95;4.45;;;;;;;;;;5083770;28;20216;-34
2023/06/22 15:35:24;;;;;;;13.73;4.40;;;;;;;;;;5082188;28;20204;-30
2023/06/22 15:37:52;;;;;;;6.93;4.10;;;;;;;;;;5095327;28;20216;-34
2023/06/22 15:40:19;;;;;;;8.93;4.45;;;;;;;;;;5080187;28;20210;-31
2023/06/22 15:42:47;;;;;;;9.98;4.25;;;;;;;;;;5089112;28;20200;-30
2023/06/22 15:45:14;;;;;;;9.32;4.38;;;;;;;;;;5089961;28;20212;-32
2023/06/22 15:47:42;;;;;;;7.97;4.25;;;;;;;;;;5078576;28;20226;-27
2023/06/22 15:50:09;;;;;;;9.90;4.13;;;;;;;;;;5079370;28;20209;-32
2023/06/22 15:52:38;;;;;;;9.57;3.42;;;;;;;;;;5094166;28;20200;-30
2023/06/22 15:55:07;;;;;;;10.45;3.70;;;;;;;;;;5079943;28;20211;-35
2023/06/22 15:57:34;;;;;;;9.23;3.42;;;;;;;;;;5102201;28;20220;-30
2023/06/22 16:00:05;;;;;;;10.90;3.15;;;;;;;;;;5087130;28;20204;-30
2023/06/22 16:02:32;;;;;;;7.65;3.08;;;;;;;;;;5085123;28;20265;-34
2023/06/22 16:05:01;;;;;;;5.43;2.78;;;;;;;;;;5095265;28;20196;-29
2023/06/22 16:07:28;;;;;;;7.55;3.10;;;;;;;;;;5086226;28;20260;-32
2023/06/22 16:09:56;;;;;;;11.43;3.63;;;;;;;;;;5073478;28;20209;-32
2023/06/22 16:12:26;;;;;;;8.32;2.97;;;;;;;;;;5087849;28;20196;-34
2023/06/22 16:14:53;;;;;;;8.20;3.30;;;;;;;;;;5106552;28;20196;-36
2023/06/22 16:17:20;;;;;;;5.68;3.00;;;;;;;;;;5093298;28;20233;-28
2023/06/22 16:19:47;;;;;;;10.15;3.60;;;;;;;;;;5069319;28;20208;-35
2023/06/22 16:22:14;;;;;;;8.40;3.28;;;;;;;;;;5086331;28;20395;-32
2023/06/22 16:24:41;;;;;;;7.32;3.08;;;;;;;;;;5067699;28;20209;-30
2023/06/22 16:27:10;;;;;;;5.72;2.42;;;;;;;;;;5077147;28;20193;-29
2023/06/22 16:29:38;;;;;;;18.25;2.97;;;;;;;;;;5087016;28;20215;-36
2023/06/22 16:32:06;;;;;;;5.90;2.88;;;;;;;;;;5078663;28;20202;-29
2023/06/22 16:34:33;;;;;;;11.13;2.70;;;;;;;;;;5075925;28;20197;-31
2023/06/22 16:37:00;;;;;;;9.00;3.05;;;;;;;;;;5083072;28;20220;-36
2023/06/22 16:39:27;;;;;;;9.95;3.15;;;;;;;;;;5076497;28;20216;-30
2023/06/22 16:41:54;;;;;;;5.10;2.95;;;;;;;;;;5085946;28;20215;-34
2023/06/22 16:44:23;;;;;;;6.63;2.95;;;;;;;;;;5093503;28;20201;-31
2023/06/22 16:46:50;;;;;;;7.82;2.83;;;;;;;;;;5091938;28;20211;-34
2023/06/22 16:49:17;;;;;;;7.28;2.90;;;;;;;;;;5068757;28;20224;-32
2023/06/22 16:51:44;;;;;;;9.60;2.50;;;;;;;;;;5077649;28;20219;-32
2023/06/22 16:54:12;;;;;;;7.32;3.00;;;;;;;;;;5063781;28;20197;-33
2023/06/22 16:56:40;;;;;;;12.43;3.08;;;;;;;;;;5071073;28;20667;-34
2023/06/22 16:59:07;;;;;;;6.90;2.95;;;;;;;;;;5077339;28;20283;-27
2023/06/22 17:01:37;;;;;;;11.10;2.97;;;;;;;;;;5066499;28;20211;-36
2023/06/22 17:04:07;;;;;;;7.22;3.22;;;;;;;;;;5067837;28;20361;-32
2023/06/22 17:06:34;;;;;;;9.55;3.35;;;;;;;;;;5080560;28;20189;-35
2023/06/22 17:09:02;;;;;;;7.40;2.88;;;;;;;;;;5072086;28;20226;-27
2023/06/22 17:11:30;;;;;;;10.88;2.75;;;;;;;;;;5060564;28;20213;-34
2023/06/22 17:13:57;;;;;;;5.63;3.05;;;;;;;;;;5080388;28;20201;-33
2023/06/22 17:16:25;;;;;;;9.13;3.00;;;;;;;;;;5072198;28;20226;-31
2023/06/22 17:18:54;;;;;;;7.93;2.85;;;;;;;;;;5078564;28;20220;-33
2023/06/22 17:21:24;;;;;;;6.63;3.53;;;;;;;;;;5091469;28;20208;-36
2023/06/22 17:23:51;;;;;;;9.15;3.10;;;;;;;;;;5076914;28;20212;-33
2023/06/22 17:26:19;;;;;;;7.35;2.80;;;;;;;;;;5067367;28;20208;-32
2023/06/22 17:28:50;;;;;;;8.63;2.78;;;;;;;;;;5090850;28;20229;-33
2023/06/22 17:31:17;;;;;;;9.10;2.85;;;;;;;;;;5080245;28;20506;-36
2023/06/22 17:33:44;;;;;;;7.28;3.15;;;;;;;;;;5063114;28;20224;-32
2023/06/22 17:36:14;;;;;;;10.00;3.05;;;;;;;;;;5077370;28;20572;-35
2023/06/22 17:38:41;;;;;;;9.20;2.92;;;;;;;;;;5062534;28;20221;-31
2023/06/22 17:41:08;;;;;;;5.78;2.90;;;;;;;;;;5069540;28;20474;-35
2023/06/22 17:43:44;;;;;;;5.85;2.63;;;;;;;;;;5091011;28;20676;-33
2023/06/22 17:46:12;;;;;;;9.52;3.08;;;;;;;;;;5090933;28;20208;-37
2023/06/22 17:48:39;;;;;;;7.95;2.90;;;;;;;;;;5078112;28;20233;-35
2023/06/22 17:51:08;;;;;;;7.43;2.95;;;;;;;;;;5079206;28;20253;-36
2023/06/22 17:53:37;;;;;;;8.30;3.13;;;;;;;;;;5069331;28;20225;-36
2023/06/22 17:56:05;;;;;;;6.57;2.42;;;;;;;;;;5062489;28;20204;-31
2023/06/22 17:58:32;;;;;;;5.90;2.60;;;;;;;;;;5069882;28;20325;-33
2023/06/22 18:00:59;;;;;;;8.32;2.67;;;;;;;;;;5070574;28;20205;-32
2023/06/22 18:03:26;;;;;;;9.13;2.60;;;;;;;;;;5064403;28;20206;-34
2023/06/22 18:05:55;;;;;;;5.35;2.78;;;;;;;;;;5063595;28;20209;-34
2023/06/22 18:08:26;;;;;;;7.57;2.90;;;;;;;;;;5077786;28;20434;-30
2023/06/22 18:10:55;;;;;;;7.25;2.60;;;;;;;;;;5064719;28;20228;-35
2023/06/22 18:13:22;;;;;;;5.93;2.40;;;;;;;;;;5076264;28;20207;-31
2023/06/22 18:15:50;;;;;;;4.45;2.38;;;;;;;;;;5090021;28;20210;-36
2023/06/22 18:18:18;;;;;;;6.63;2.83;;;;;;;;;;5066556;28;20245;-30
2023/06/22 18:20:45;;;;;;;3.72;2.33;;;;;;;;;;5065929;28;20212;-35
2023/06/22 18:23:13;;;;;;;6.40;2.45;;;;;;;;;;5081770;28;20198;-37
2023/06/22 18:25:44;;;;;;;6.32;2.40;;;;;;;;;;5074039;28;20244;-33
2023/06/22 18:28:14;;;;;;;9.82;2.75;;;;;;;;;;5082316;28;20212;-38
2023/06/22 18:30:41;;;;;;;11.93;2.75;;;;;;;;;;5090195;28;20580;-32
2023/06/22 18:33:08;;;;;;;3.75;2.10;;;;;;;;;;5065169;28;20216;-37
2023/06/22 18:35:35;;;;;;;7.43;2.70;;;;;;;;;;5074304;28;20656;-31
2023/06/22 18:38:03;;;;;;;7.05;2.72;;;;;;;;;;5084229;28;20235;-36
2023/06/22 18:40:30;;;;;;;6.38;2.40;;;;;;;;;;5061711;28;20214;-39
2023/06/22 18:43:01;;;;;;;5.60;2.33;;;;;;;;;;5079816;28;20204;-35
2023/06/22 18:45:32;;;;;;;7.72;2.22;;;;;;;;;;5090299;28;20212;-35
2023/06/22 18:48:03;;;;;;;4.72;2.40;;;;;;;;;;5077882;28;20249;-33
2023/06/22 18:50:37;;;;;;;3.78;2.05;;;;;;;;;;5075923;28;20200;-35
2023/06/22 18:53:04;;;;;;;8.27;2.97;;;;;;;;;;5057569;28;20204;-35
2023/06/22 18:55:32;;;;;;;10.45;2.35;;;;;;;;;;5068816;28;20201;-32
2023/06/22 18:58:13;;;;;;;4.50;1.92;;;;;;;;;;5068891;28;20229;-33
2023/06/22 19:00:42;;;;;;;3.30;1.83;;;;;;;;;;5069819;28;20205;-30
2023/06/22 19:03:09;;;;;;;4.88;1.98;;;;;;;;;;5066493;28;20193;-27
2023/06/22 19:05:39;;;;;;;5.97;2.50;;;;;;;;;;5077152;28;20205;-37
2023/06/22 19:08:07;;;;;;;8.13;2.45;;;;;;;;;;5067947;28;20221;-33
2023/06/22 19:10:42;;;;;;;12.52;2.55;;;;;;;;;;5064827;28;20202;-33
2023/06/22 19:13:19;;;;;;;7.35;2.55;;;;;;;;;;5069076;28;20286;-31
2023/06/22 19:15:48;;;;;;;4.00;2.17;;;;;;;;;;5091449;28;20208;-32
2023/06/22 19:18:16;;;;;;;5.47;2.13;;;;;;;;;;5071641;28;20228;-31
2023/06/22 19:20:43;;;;;;;3.92;2.42;;;;;;;;;;5076392;28;20219;-34
2023/06/22 19:23:24;;;;;;;3.42;2.05;;;;;;;;;;5080744;28;20812;-29
2023/06/22 19:25:56;;;;;;;4.45;2.20;;;;;;;;;;5072153;28;20209;-32
2023/06/22 19:28:24;;;;;;;5.13;1.92;;;;;;;;;;5082502;28;20275;-35
2023/06/22 19:30:54;;;;;;;3.58;2.42;;;;;;;;;;5068921;28;20213;-33
2023/06/22 19:33:22;;;;;;;3.40;1.95;;;;;;;;;;5067726;28;20567;-28
2023/06/22 19:35:49;;;;;;;3.70;1.98;;;;;;;;;;5076545;28;20216;-34
2023/06/22 19:38:17;;;;;;;6.90;2.30;;;;;;;;;;5071819;28;20541;-30
2023/06/22 19:40:45;;;;;;;3.78;2.25;;;;;;;;;;5056578;28;20236;-31
2023/06/22 19:43:13;;;;;;;4.72;2.03;;;;;;;;;;5068843;28;20200;-33
2023/06/22 19:45:41;;;;;;;4.50;2.00;;;;;;;;;;5068028;28;20219;-34
2023/06/22 19:48:10;;;;;;;6.50;2.22;;;;;;;;;;5056517;28;20218;-29
2023/06/22 19:50:39;;;;;;;2.92;1.95;;;;;;;;;;5081773;28;20204;-29
2023/06/22 19:53:09;;;;;;;6.10;2.17;;;;;;;;;;5063422;28;20213;-33
2023/06/22 19:55:38;;;;;;;4.80;2.15;;;;;;;;;;5072361;28;20278;-30
2023/06/22 19:58:06;;;;;;;7.03;2.40;;;;;;;;;;5072465;28;20221;-34
2023/06/22 20:00:34;;;;;;;5.22;2.13;;;;;;;;;;5073165;28;20216;-35
2023/06/22 20:03:01;;;;;;;6.07;2.28;;;;;;;;;;5065336;28;20269;-33
2023/06/22 20:05:30;;;;;;;3.95;2.15;;;;;;;;;;5079266;28;20204;-34
2023/06/22 20:07:57;;;;;;;4.68;2.42;;;;;;;;;;5055611;28;20243;-36
2023/06/22 20:10:24;;;;;;;4.82;2.42;;;;;;;;;;5059252;28;20197;-33
2023/06/22 20:12:52;;;;;;;6.68;2.58;;;;;;;;;;5061589;28;20613;-32
2023/06/22 20:15:21;;;;;;;5.97;2.47;;;;;;;;;;5081738;28;20197;-34
2023/06/22 20:17:54;;;;;;;3.72;1.92;;;;;;;;;;5074084;28;20250;-32
2023/06/22 20:20:21;;;;;;;3.47;2.08;;;;;;;;;;5064376;28;20206;-34
2023/06/22 20:22:50;;;;;;;8.88;2.50;;;;;;;;;;5315966;22;20289;-33
2023/06/22 20:25:21;;;;;;;5.72;2.00;;;;;;;;;;5065990;28;20209;-30
2023/06/22 20:27:48;;;;;;;3.33;2.40;;;;;;;;;;5056842;28;20288;-31
2023/06/22 20:30:16;;;;;;;4.45;2.30;;;;;;;;;;5032623;28;20220;-30
2023/06/22 20:32:50;;;;;;;5.28;2.35;;;;;;;;;;5030476;28;20221;-30
2023/06/22 20:35:17;;;;;;;5.13;2.15;;;;;;;;;;5035104;28;20209;-30
2023/06/22 20:37:44;;;;;;;6.00;1.95;;;;;;;;;;5039415;28;20715;-30
2023/06/22 20:40:14;;;;;;;5.15;2.05;;;;;;;;;;5030223;28;20206;-27
2023/06/22 20:42:41;;;;;;;6.15;2.53;;;;;;;;;;5039696;28;20237;-31
2023/06/22 20:45:09;;;;;;;4.78;2.40;;;;;;;;;;5032223;28;20209;-33
2023/06/22 20:47:37;;;;;;;3.10;1.83;;;;;;;;;;5036219;28;20231;-29
2023/06/22 20:50:04;;;;;;;2.83;2.28;;;;;;;;;;5039855;28;20214;-28
2023/06/22 20:52:32;;;;;;;2.58;1.80;;;;;;;;;;5048476;28;20212;-32
2023/06/22 20:54:59;;;;;;;3.72;2.20;;;;;;;;;;5040329;28;20199;-29
2023/06/22 20:57:27;;;;;;;6.55;2.38;;;;;;;;;;5047717;28;20224;-31
2023/06/22 20:59:54;;;;;;;3.38;2.58;;;;;;;;;;5049228;28;20219;-30
2023/06/22 21:02:23;;;;;;;5.57;2.47;;;;;;;;;;5040431;28;20240;-34
2023/06/22 21:04:50;;;;;;;6.05;2.47;;;;;;;;;;5051430;28;20262;-29
2023/06/22 21:07:17;;;;;;;4.05;2.38;;;;;;;;;;5047795;28;20220;-33
2023/06/22 21:09:45;;;;;;;4.68;2.28;;;;;;;;;;5043590;28;20212;-31
2023/06/22 21:12:12;;;;;;;4.95;2.28;;;;;;;;;;5045584;28;20205;-32
2023/06/22 21:14:41;;;;;;;7.63;2.50;;;;;;;;;;5049592;28;20209;-31
2023/06/22 21:17:08;;;;;;;3.55;2.25;;;;;;;;;;5046695;28;20580;-30
2023/06/22 21:19:35;;;;;;;6.45;2.97;;;;;;;;;;5043524;28;20258;-31
2023/06/22 21:22:03;;;;;;;3.75;2.28;;;;;;;;;;5050986;28;20215;-31
2023/06/22 21:24:30;;;;;;;7.28;2.20;;;;;;;;;;5037541;28;20499;-33
2023/06/22 21:26:57;;;;;;;3.58;2.20;;;;;;;;;;5042929;28;20209;-32
2023/06/22 21:29:24;;;;;;;3.03;2.08;;;;;;;;;;5039706;28;20228;-34
2023/06/22 21:31:53;;;;;;;3.75;2.35;;;;;;;;;;5034247;28;20212;-29
2023/06/22 21:34:20;;;;;;;4.65;2.63;;;;;;;;;;5043530;28;20259;-31
2023/06/22 21:36:47;;;;;;;4.10;2.20;;;;;;;;;;5036570;28;20208;-28
2023/06/22 21:39:14;;;;;;;3.72;2.03;;;;;;;;;;5049387;28;20255;-31
2023/06/22 21:41:44;;;;;;;2.22;1.90;;;;;;;;;;5047025;28;20215;-31
2023/06/22 21:44:11;;;;;;;2.63;2.22;;;;;;;;;;5033759;28;20204;-31
2023/06/22 21:46:38;;;;;;;4.57;2.08;;;;;;;;;;5035693;28;20214;-33
2023/06/22 21:49:06;;;;;;;3.90;1.55;;;;;;;;;;5037361;28;20223;-33
2023/06/22 21:51:33;;;;;;;4.00;2.20;;;;;;;;;;5041745;28;20205;-30
2023/06/22 21:54:00;;;;;;;2.15;1.80;;;;;;;;;;5044006;28;20205;-33
2023/06/22 21:56:28;;;;;;;3.55;2.30;;;;;;;;;;5040362;28;20207;-31
2023/06/22 21:58:55;;;;;;;5.75;2.20;;;;;;;;;;5042401;28;20278;-28
2023/06/22 22:01:22;;;;;;;2.03;1.83;;;;;;;;;;5033921;28;20211;-30
2023/06/22 22:03:51;;;;;;;4.03;1.58;;;;;;;;;;5049660;28;20428;-30
2023/06/22 22:06:23;;;;;;;4.35;2.03;;;;;;;;;;5039375;28;20280;-33